sensor_id;sensor_type;location;lat;lon;timestamp;temperature;humidity
40996;DHT22;26723;57.478;12.066;2022-07-29T00:01:36;14.30;99.90
40996;DHT22;26723;57.478;12.066;2022-07-29T00:04:55;14.20;99.90
40996;DHT22;26723;57.478;12.066;2022-07-29T00:08:14;14.20;99.90
40996;DHT22;26723;57.478;12.066;2022-07-29T00:11:23;14.20;99.90
40996;DHT22;26723;57.478;12.066;2022-07-29T00:14:42;14.10;99.90
40996;DHT22;26723;57.478;12.066;2022-07-29T00:17:58;13.90;99.90
40996;DHT22;26723;57.478;12.066;2022-07-29T00:21:13;13.80;99.90
40996;DHT22;26723;57.478;12.066;2022-07-29T00:24:42;13.70;99.90
40996;DHT22;26723;57.478;12.066;2022-07-29T00:27:53;13.70;99.90
40996;DHT22;26723;57.478;12.066;2022-07-29T00:35:46;13.80;99.90
40996;DHT22;26723;57.478;12.066;2022-07-29T00:39:33;13.80;99.90
40996;DHT22;26723;57.478;12.066;2022-07-29T00:42:45;13.70;99.90
40996;DHT22;26723;57.478;12.066;2022-07-29T00:46:05;13.70;99.90
40996;DHT22;26723;57.478;12.066;2022-07-29T00:49:32;13.70;99.90
40996;DHT22;26723;57.478;12.066;2022-07-29T00:53:30;13.60;99.90
40996;DHT22;26723;57.478;12.066;2022-07-29T00:56:54;13.50;99.90
40996;DHT22;26723;57.478;12.066;2022-07-29T01:04:46;13.50;99.90
40996;DHT22;26723;57.478;12.066;2022-07-29T01:12:29;13.30;99.90
40996;DHT22;26723;57.478;12.066;2022-07-29T01:15:49;13.30;99.90
40996;DHT22;26723;57.478;12.066;2022-07-29T01:19:19;13.40;99.90
40996;DHT22;26723;57.478;12.066;2022-07-29T01:23:01;13.30;99.90
40996;DHT22;26723;57.478;12.066;2022-07-29T01:26:47;13.30;99.90
40996;DHT22;26723;57.478;12.066;2022-07-29T01:30:32;13.20;99.90
40996;DHT22;26723;57.478;12.066;2022-07-29T01:34:25;13.20;99.90
40996;DHT22;26723;57.478;12.066;2022-07-29T01:38:16;13.10;99.90
40996;DHT22;26723;57.478;12.066;2022-07-29T01:45:48;13.10;99.90
40996;DHT22;26723;57.478;12.066;2022-07-29T01:49:29;13.20;99.90
40996;DHT22;26723;57.478;12.066;2022-07-29T01:52:54;13.10;99.90
40996;DHT22;26723;57.478;12.066;2022-07-29T01:56:09;13.10;99.90
40996;DHT22;26723;57.478;12.066;2022-07-29T01:59:47;13.10;99.90
40996;DHT22;26723;57.478;12.066;2022-07-29T02:03:07;13.00;99.90
40996;DHT22;26723;57.478;12.066;2022-07-29T02:06:43;13.00;99.90
40996;DHT22;26723;57.478;12.066;2022-07-29T02:10:21;12.80;99.90
40996;DHT22;26723;57.478;12.066;2022-07-29T02:13:37;12.80;99.90
40996;DHT22;26723;57.478;12.066;2022-07-29T02:17:53;12.70;99.90
40996;DHT22;26723;57.478;12.066;2022-07-29T02:21:05;12.60;99.90
40996;DHT22;26723;57.478;12.066;2022-07-29T02:28:26;12.60;99.90
40996;DHT22;26723;57.478;12.066;2022-07-29T02:32:08;12.70;99.90
40996;DHT22;26723;57.478;12.066;2022-07-29T02:35:50;12.80;99.90
40996;DHT22;26723;57.478;12.066;2022-07-29T02:39:28;12.80;99.90
40996;DHT22;26723;57.478;12.066;2022-07-29T02:42:55;12.70;99.90
40996;DHT22;26723;57.478;12.066;2022-07-29T02:46:35;12.60;99.90
40996;DHT22;26723;57.478;12.066;2022-07-29T02:50:00;12.50;99.90
40996;DHT22;26723;57.478;12.066;2022-07-29T02:53:22;12.40;99.90
40996;DHT22;26723;57.478;12.066;2022-07-29T02:57:09;12.50;99.90
40996;DHT22;26723;57.478;12.066;2022-07-29T03:00:39;12.50;99.90
40996;DHT22;26723;57.478;12.066;2022-07-29T03:03:57;12.50;99.90
40996;DHT22;26723;57.478;12.066;2022-07-29T03:07:28;12.40;99.90
40996;DHT22;26723;57.478;12.066;2022-07-29T03:10:46;12.30;99.90
40996;DHT22;26723;57.478;12.066;2022-07-29T03:14:11;12.30;99.90
40996;DHT22;26723;57.478;12.066;2022-07-29T03:17:41;12.20;99.90
40996;DHT22;26723;57.478;12.066;2022-07-29T03:20:58;12.20;99.90
40996;DHT22;26723;57.478;12.066;2022-07-29T03:24:27;12.20;99.90
40996;DHT22;26723;57.478;12.066;2022-07-29T03:28:16;12.20;99.90
40996;DHT22;26723;57.478;12.066;2022-07-29T03:32:05;12.30;99.90
40996;DHT22;26723;57.478;12.066;2022-07-29T03:35:54;12.40;99.90
40996;DHT22;26723;57.478;12.066;2022-07-29T03:39:18;12.30;99.90
40996;DHT22;26723;57.478;12.066;2022-07-29T03:42:45;12.40;99.90
40996;DHT22;26723;57.478;12.066;2022-07-29T03:46:03;12.40;99.90
40996;DHT22;26723;57.478;12.066;2022-07-29T03:49:47;12.30;99.90
40996;DHT22;26723;57.478;12.066;2022-07-29T03:53:00;12.40;99.90
40996;DHT22;26723;57.478;12.066;2022-07-29T03:57:04;12.50;99.90
40996;DHT22;26723;57.478;12.066;2022-07-29T04:00:55;12.60;99.90
40996;DHT22;26723;57.478;12.066;2022-07-29T04:04:56;12.50;99.90
40996;DHT22;26723;57.478;12.066;2022-07-29T04:08:19;12.50;99.90
40996;DHT22;26723;57.478;12.066;2022-07-29T04:11:35;12.50;99.90
40996;DHT22;26723;57.478;12.066;2022-07-29T04:15:15;12.50;99.90
40996;DHT22;26723;57.478;12.066;2022-07-29T04:18:37;12.60;99.90
40996;DHT22;26723;57.478;12.066;2022-07-29T04:21:52;12.70;99.90
40996;DHT22;26723;57.478;12.066;2022-07-29T04:25:08;12.70;99.90
40996;DHT22;26723;57.478;12.066;2022-07-29T04:29:28;12.70;99.90
40996;DHT22;26723;57.478;12.066;2022-07-29T04:33:07;12.80;99.90
40996;DHT22;26723;57.478;12.066;2022-07-29T04:36:37;12.80;99.90
40996;DHT22;26723;57.478;12.066;2022-07-29T04:40:10;12.90;99.90
40996;DHT22;26723;57.478;12.066;2022-07-29T04:43:29;12.90;99.90
40996;DHT22;26723;57.478;12.066;2022-07-29T04:46:54;12.90;99.90
40996;DHT22;26723;57.478;12.066;2022-07-29T04:50:13;13.00;99.90
40996;DHT22;26723;57.478;12.066;2022-07-29T04:53:38;13.00;99.90
40996;DHT22;26723;57.478;12.066;2022-07-29T04:57:02;13.10;99.90
40996;DHT22;26723;57.478;12.066;2022-07-29T05:00:28;13.10;99.90
40996;DHT22;26723;57.478;12.066;2022-07-29T05:04:11;13.20;99.90
40996;DHT22;26723;57.478;12.066;2022-07-29T05:07:34;13.40;99.90
40996;DHT22;26723;57.478;12.066;2022-07-29T05:11:03;13.60;99.90
40996;DHT22;26723;57.478;12.066;2022-07-29T05:14:45;13.60;99.90
40996;DHT22;26723;57.478;12.066;2022-07-29T05:18:19;13.60;99.90
40996;DHT22;26723;57.478;12.066;2022-07-29T05:21:49;13.70;99.90
40996;DHT22;26723;57.478;12.066;2022-07-29T05:25:38;13.80;99.90
40996;DHT22;26723;57.478;12.066;2022-07-29T05:28:57;13.80;99.90
40996;DHT22;26723;57.478;12.066;2022-07-29T05:32:35;13.90;99.90
40996;DHT22;26723;57.478;12.066;2022-07-29T05:35:43;14.00;99.90
40996;DHT22;26723;57.478;12.066;2022-07-29T05:38:52;14.10;99.90
40996;DHT22;26723;57.478;12.066;2022-07-29T05:42:01;14.20;99.90
40996;DHT22;26723;57.478;12.066;2022-07-29T05:45:10;14.30;99.90
40996;DHT22;26723;57.478;12.066;2022-07-29T05:48:20;14.40;99.90
40996;DHT22;26723;57.478;12.066;2022-07-29T05:51:31;14.40;99.90
40996;DHT22;26723;57.478;12.066;2022-07-29T05:54:41;14.60;99.90
40996;DHT22;26723;57.478;12.066;2022-07-29T05:57:52;14.70;99.90
40996;DHT22;26723;57.478;12.066;2022-07-29T06:01:00;14.80;99.90
40996;DHT22;26723;57.478;12.066;2022-07-29T06:04:10;15.00;99.90
40996;DHT22;26723;57.478;12.066;2022-07-29T06:07:20;15.10;99.90
40996;DHT22;26723;57.478;12.066;2022-07-29T06:10:28;15.30;99.90
40996;DHT22;26723;57.478;12.066;2022-07-29T06:13:37;15.50;99.90
40996;DHT22;26723;57.478;12.066;2022-07-29T06:16:45;15.80;99.90
40996;DHT22;26723;57.478;12.066;2022-07-29T06:19:55;16.10;99.90
40996;DHT22;26723;57.478;12.066;2022-07-29T06:23:04;16.30;99.90
40996;DHT22;26723;57.478;12.066;2022-07-29T06:26:16;16.90;99.90
40996;DHT22;26723;57.478;12.066;2022-07-29T06:29:43;17.40;99.90
40996;DHT22;26723;57.478;12.066;2022-07-29T06:32:54;18.00;99.90
40996;DHT22;26723;57.478;12.066;2022-07-29T06:36:05;20.70;99.90
40996;DHT22;26723;57.478;12.066;2022-07-29T06:39:14;23.00;99.90
40996;DHT22;26723;57.478;12.066;2022-07-29T06:42:23;24.10;99.90
40996;DHT22;26723;57.478;12.066;2022-07-29T06:45:33;24.80;99.90
40996;DHT22;26723;57.478;12.066;2022-07-29T06:48:42;25.40;99.90
40996;DHT22;26723;57.478;12.066;2022-07-29T06:51:52;25.80;99.90
40996;DHT22;26723;57.478;12.066;2022-07-29T06:55:01;25.60;99.90
40996;DHT22;26723;57.478;12.066;2022-07-29T06:58:11;25.30;99.90
40996;DHT22;26723;57.478;12.066;2022-07-29T07:01:21;25.60;99.90
40996;DHT22;26723;57.478;12.066;2022-07-29T07:04:30;25.10;99.90
40996;DHT22;26723;57.478;12.066;2022-07-29T07:07:40;25.10;99.90
40996;DHT22;26723;57.478;12.066;2022-07-29T07:10:48;25.20;99.90
40996;DHT22;26723;57.478;12.066;2022-07-29T07:13:57;25.30;99.90
40996;DHT22;26723;57.478;12.066;2022-07-29T07:17:13;26.00;99.90
40996;DHT22;26723;57.478;12.066;2022-07-29T07:20:22;26.10;99.90
40996;DHT22;26723;57.478;12.066;2022-07-29T07:23:32;26.00;99.90
40996;DHT22;26723;57.478;12.066;2022-07-29T07:26:41;26.60;99.90
40996;DHT22;26723;57.478;12.066;2022-07-29T07:29:50;26.90;99.90
40996;DHT22;26723;57.478;12.066;2022-07-29T07:32:59;27.10;99.90
40996;DHT22;26723;57.478;12.066;2022-07-29T07:36:07;26.90;99.90
40996;DHT22;26723;57.478;12.066;2022-07-29T07:39:17;27.70;99.90
40996;DHT22;26723;57.478;12.066;2022-07-29T07:42:26;28.20;99.90
40996;DHT22;26723;57.478;12.066;2022-07-29T07:45:34;27.90;99.90
40996;DHT22;26723;57.478;12.066;2022-07-29T07:48:44;26.70;99.90
40996;DHT22;26723;57.478;12.066;2022-07-29T07:51:53;26.90;99.90
40996;DHT22;26723;57.478;12.066;2022-07-29T07:55:03;26.50;99.90
40996;DHT22;26723;57.478;12.066;2022-07-29T07:58:11;27.90;99.90
40996;DHT22;26723;57.478;12.066;2022-07-29T08:01:20;28.40;99.90
40996;DHT22;26723;57.478;12.066;2022-07-29T08:04:29;28.40;99.90
40996;DHT22;26723;57.478;12.066;2022-07-29T08:07:38;29.00;99.90
40996;DHT22;26723;57.478;12.066;2022-07-29T08:10:47;28.20;99.90
40996;DHT22;26723;57.478;12.066;2022-07-29T08:14:03;28.40;99.90
40996;DHT22;26723;57.478;12.066;2022-07-29T08:17:11;28.40;99.90
40996;DHT22;26723;57.478;12.066;2022-07-29T08:20:20;28.80;99.90
40996;DHT22;26723;57.478;12.066;2022-07-29T08:23:28;29.10;99.90
40996;DHT22;26723;57.478;12.066;2022-07-29T08:26:56;29.30;99.90
40996;DHT22;26723;57.478;12.066;2022-07-29T08:30:05;29.10;99.90
40996;DHT22;26723;57.478;12.066;2022-07-29T08:33:14;29.60;99.90
40996;DHT22;26723;57.478;12.066;2022-07-29T08:36:23;29.30;99.90
40996;DHT22;26723;57.478;12.066;2022-07-29T08:39:32;29.20;99.90
40996;DHT22;26723;57.478;12.066;2022-07-29T08:42:43;29.20;99.90
40996;DHT22;26723;57.478;12.066;2022-07-29T08:45:52;29.40;99.90
40996;DHT22;26723;57.478;12.066;2022-07-29T08:49:02;29.60;99.90
40996;DHT22;26723;57.478;12.066;2022-07-29T08:52:10;29.70;99.90
40996;DHT22;26723;57.478;12.066;2022-07-29T08:55:19;29.20;99.90
40996;DHT22;26723;57.478;12.066;2022-07-29T08:58:32;29.40;99.90
40996;DHT22;26723;57.478;12.066;2022-07-29T09:01:45;30.30;99.90
40996;DHT22;26723;57.478;12.066;2022-07-29T09:04:57;29.90;99.90
40996;DHT22;26723;57.478;12.066;2022-07-29T09:08:06;29.70;99.90
40996;DHT22;26723;57.478;12.066;2022-07-29T09:11:14;29.20;99.90
40996;DHT22;26723;57.478;12.066;2022-07-29T09:14:24;29.70;99.90
40996;DHT22;26723;57.478;12.066;2022-07-29T09:17:42;29.90;99.90
40996;DHT22;26723;57.478;12.066;2022-07-29T09:20:52;29.60;99.90
40996;DHT22;26723;57.478;12.066;2022-07-29T09:24:18;30.20;99.90
40996;DHT22;26723;57.478;12.066;2022-07-29T09:27:26;29.80;99.90
40996;DHT22;26723;57.478;12.066;2022-07-29T09:30:49;29.70;99.90
40996;DHT22;26723;57.478;12.066;2022-07-29T09:33:58;30.00;99.90
40996;DHT22;26723;57.478;12.066;2022-07-29T09:37:08;29.90;99.90
40996;DHT22;26723;57.478;12.066;2022-07-29T09:40:18;29.70;99.90
40996;DHT22;26723;57.478;12.066;2022-07-29T09:43:36;30.00;99.90
40996;DHT22;26723;57.478;12.066;2022-07-29T09:46:57;29.80;99.90
40996;DHT22;26723;57.478;12.066;2022-07-29T09:50:07;29.60;99.90
40996;DHT22;26723;57.478;12.066;2022-07-29T09:53:49;29.30;99.90
40996;DHT22;26723;57.478;12.066;2022-07-29T09:57:21;29.50;99.90
40996;DHT22;26723;57.478;12.066;2022-07-29T10:00:42;29.40;99.90
40996;DHT22;26723;57.478;12.066;2022-07-29T10:03:52;29.50;99.90
40996;DHT22;26723;57.478;12.066;2022-07-29T10:07:02;29.20;99.90
40996;DHT22;26723;57.478;12.066;2022-07-29T10:10:19;29.30;99.90
40996;DHT22;26723;57.478;12.066;2022-07-29T10:13:27;29.10;99.90
40996;DHT22;26723;57.478;12.066;2022-07-29T10:16:36;29.20;99.90
40996;DHT22;26723;57.478;12.066;2022-07-29T10:19:47;28.70;99.90
40996;DHT22;26723;57.478;12.066;2022-07-29T10:22:57;28.70;99.90
40996;DHT22;26723;57.478;12.066;2022-07-29T10:26:06;28.50;99.90
40996;DHT22;26723;57.478;12.066;2022-07-29T10:29:15;28.50;99.90
40996;DHT22;26723;57.478;12.066;2022-07-29T10:32:34;28.50;99.90
40996;DHT22;26723;57.478;12.066;2022-07-29T10:35:58;28.60;99.90
40996;DHT22;26723;57.478;12.066;2022-07-29T10:39:19;28.50;99.90
40996;DHT22;26723;57.478;12.066;2022-07-29T10:42:49;28.30;99.90
40996;DHT22;26723;57.478;12.066;2022-07-29T10:46:00;27.70;99.90
40996;DHT22;26723;57.478;12.066;2022-07-29T10:49:15;26.70;99.90
40996;DHT22;26723;57.478;12.066;2022-07-29T10:52:51;26.90;99.90
40996;DHT22;26723;57.478;12.066;2022-07-29T10:56:01;27.50;99.90
40996;DHT22;26723;57.478;12.066;2022-07-29T10:59:25;27.90;99.90
40996;DHT22;26723;57.478;12.066;2022-07-29T11:02:46;27.90;99.90
40996;DHT22;26723;57.478;12.066;2022-07-29T11:06:03;27.80;99.90
40996;DHT22;26723;57.478;12.066;2022-07-29T11:09:17;28.20;99.90
40996;DHT22;26723;57.478;12.066;2022-07-29T11:12:46;27.80;99.90
40996;DHT22;26723;57.478;12.066;2022-07-29T11:15:56;27.70;99.90
40996;DHT22;26723;57.478;12.066;2022-07-29T11:19:27;27.70;99.90
40996;DHT22;26723;57.478;12.066;2022-07-29T11:26:39;27.30;99.90
40996;DHT22;26723;57.478;12.066;2022-07-29T11:29:56;27.20;99.90
40996;DHT22;26723;57.478;12.066;2022-07-29T11:33:28;27.10;99.90
40996;DHT22;26723;57.478;12.066;2022-07-29T11:37:22;27.30;99.90
40996;DHT22;26723;57.478;12.066;2022-07-29T11:40:40;27.10;99.90
40996;DHT22;26723;57.478;12.066;2022-07-29T11:43:56;26.80;99.90
40996;DHT22;26723;57.478;12.066;2022-07-29T11:47:42;26.50;99.90
40996;DHT22;26723;57.478;12.066;2022-07-29T11:51:11;26.70;99.90
40996;DHT22;26723;57.478;12.066;2022-07-29T11:54:51;26.40;99.90
40996;DHT22;26723;57.478;12.066;2022-07-29T11:58:49;26.40;99.90
40996;DHT22;26723;57.478;12.066;2022-07-29T12:02:27;26.30;99.90
40996;DHT22;26723;57.478;12.066;2022-07-29T12:05:58;26.10;99.90
40996;DHT22;26723;57.478;12.066;2022-07-29T12:10:32;25.90;99.90
40996;DHT22;26723;57.478;12.066;2022-07-29T12:13:44;25.80;99.90
40996;DHT22;26723;57.478;12.066;2022-07-29T12:17:06;25.50;99.90
40996;DHT22;26723;57.478;12.066;2022-07-29T12:20:28;25.60;99.90
40996;DHT22;26723;57.478;12.066;2022-07-29T12:23:55;25.40;99.90
40996;DHT22;26723;57.478;12.066;2022-07-29T12:27:20;25.20;99.90
40996;DHT22;26723;57.478;12.066;2022-07-29T12:30:38;25.20;99.90
40996;DHT22;26723;57.478;12.066;2022-07-29T12:33:52;25.10;99.90
40996;DHT22;26723;57.478;12.066;2022-07-29T12:37:05;25.20;99.90
40996;DHT22;26723;57.478;12.066;2022-07-29T12:40:17;25.10;99.90
40996;DHT22;26723;57.478;12.066;2022-07-29T12:43:31;25.10;99.90
40996;DHT22;26723;57.478;12.066;2022-07-29T12:46:40;25.00;99.90
40996;DHT22;26723;57.478;12.066;2022-07-29T12:50:07;24.80;99.90
40996;DHT22;26723;57.478;12.066;2022-07-29T12:53:18;24.80;99.90
40996;DHT22;26723;57.478;12.066;2022-07-29T12:56:26;24.70;99.90
40996;DHT22;26723;57.478;12.066;2022-07-29T13:00:00;24.70;99.90
40996;DHT22;26723;57.478;12.066;2022-07-29T13:03:23;24.80;99.90
40996;DHT22;26723;57.478;12.066;2022-07-29T13:06:39;24.70;99.90
40996;DHT22;26723;57.478;12.066;2022-07-29T13:10:15;24.70;99.90
40996;DHT22;26723;57.478;12.066;2022-07-29T13:13:33;24.70;99.90
40996;DHT22;26723;57.478;12.066;2022-07-29T13:17:11;24.70;99.90
40996;DHT22;26723;57.478;12.066;2022-07-29T13:20:46;24.70;99.90
40996;DHT22;26723;57.478;12.066;2022-07-29T13:24:11;24.70;99.90
40996;DHT22;26723;57.478;12.066;2022-07-29T13:27:54;24.50;99.90
40996;DHT22;26723;57.478;12.066;2022-07-29T13:31:05;24.50;99.90
40996;DHT22;26723;57.478;12.066;2022-07-29T13:34:17;24.30;99.90
40996;DHT22;26723;57.478;12.066;2022-07-29T13:37:32;24.40;99.90
40996;DHT22;26723;57.478;12.066;2022-07-29T13:40:45;24.60;99.90
40996;DHT22;26723;57.478;12.066;2022-07-29T13:44:09;24.60;99.90
40996;DHT22;26723;57.478;12.066;2022-07-29T13:47:29;24.80;99.90
40996;DHT22;26723;57.478;12.066;2022-07-29T13:51:06;24.60;99.90
40996;DHT22;26723;57.478;12.066;2022-07-29T13:54:23;24.60;99.90
40996;DHT22;26723;57.478;12.066;2022-07-29T13:57:41;24.60;99.90
40996;DHT22;26723;57.478;12.066;2022-07-29T14:01:03;24.50;99.90
40996;DHT22;26723;57.478;12.066;2022-07-29T14:04:48;24.50;99.90
40996;DHT22;26723;57.478;12.066;2022-07-29T14:08:22;24.50;99.90
40996;DHT22;26723;57.478;12.066;2022-07-29T14:11:54;24.40;99.90
40996;DHT22;26723;57.478;12.066;2022-07-29T14:15:57;24.50;99.90
40996;DHT22;26723;57.478;12.066;2022-07-29T14:19:15;24.40;99.90
40996;DHT22;26723;57.478;12.066;2022-07-29T14:23:21;24.30;99.90
40996;DHT22;26723;57.478;12.066;2022-07-29T14:26:42;24.10;99.90
40996;DHT22;26723;57.478;12.066;2022-07-29T14:29:54;24.00;99.90
40996;DHT22;26723;57.478;12.066;2022-07-29T14:33:06;24.00;99.90
40996;DHT22;26723;57.478;12.066;2022-07-29T14:36:23;23.90;99.90
40996;DHT22;26723;57.478;12.066;2022-07-29T14:39:34;24.00;99.90
40996;DHT22;26723;57.478;12.066;2022-07-29T14:43:12;24.00;99.90
40996;DHT22;26723;57.478;12.066;2022-07-29T14:46:25;23.90;99.90
40996;DHT22;26723;57.478;12.066;2022-07-29T14:49:37;23.80;99.90
40996;DHT22;26723;57.478;12.066;2022-07-29T14:53:01;23.80;99.90
40996;DHT22;26723;57.478;12.066;2022-07-29T14:56:53;23.80;99.90
40996;DHT22;26723;57.478;12.066;2022-07-29T15:00:37;23.70;99.90
40996;DHT22;26723;57.478;12.066;2022-07-29T15:03:49;23.70;99.90
40996;DHT22;26723;57.478;12.066;2022-07-29T15:07:08;23.70;99.90
40996;DHT22;26723;57.478;12.066;2022-07-29T15:10:22;23.60;99.90
40996;DHT22;26723;57.478;12.066;2022-07-29T15:13:33;23.60;99.90
40996;DHT22;26723;57.478;12.066;2022-07-29T15:16:53;23.60;99.90
40996;DHT22;26723;57.478;12.066;2022-07-29T15:20:26;23.50;99.90
40996;DHT22;26723;57.478;12.066;2022-07-29T15:23:35;23.50;99.90
40996;DHT22;26723;57.478;12.066;2022-07-29T15:27:02;23.50;99.90
40996;DHT22;26723;57.478;12.066;2022-07-29T15:30:27;23.50;99.90
40996;DHT22;26723;57.478;12.066;2022-07-29T15:34:17;23.40;99.90
40996;DHT22;26723;57.478;12.066;2022-07-29T15:37:38;23.30;99.90
40996;DHT22;26723;57.478;12.066;2022-07-29T15:41:08;23.30;99.90
40996;DHT22;26723;57.478;12.066;2022-07-29T15:44:51;23.20;99.90
40996;DHT22;26723;57.478;12.066;2022-07-29T15:48:14;23.20;99.90
40996;DHT22;26723;57.478;12.066;2022-07-29T15:51:39;23.20;99.90
40996;DHT22;26723;57.478;12.066;2022-07-29T15:55:08;23.20;99.90
40996;DHT22;26723;57.478;12.066;2022-07-29T15:58:29;23.20;99.90
40996;DHT22;26723;57.478;12.066;2022-07-29T16:02:08;23.20;99.90
40996;DHT22;26723;57.478;12.066;2022-07-29T16:05:31;23.20;99.90
40996;DHT22;26723;57.478;12.066;2022-07-29T16:08:53;23.30;99.90
40996;DHT22;26723;57.478;12.066;2022-07-29T16:12:18;23.40;99.90
40996;DHT22;26723;57.478;12.066;2022-07-29T16:15:28;23.40;99.90
40996;DHT22;26723;57.478;12.066;2022-07-29T16:18:48;23.40;99.90
40996;DHT22;26723;57.478;12.066;2022-07-29T16:21:57;23.40;99.90
40996;DHT22;26723;57.478;12.066;2022-07-29T16:25:37;23.40;99.90
40996;DHT22;26723;57.478;12.066;2022-07-29T16:29:52;23.40;99.90
40996;DHT22;26723;57.478;12.066;2022-07-29T16:33:28;23.40;99.90
40996;DHT22;26723;57.478;12.066;2022-07-29T16:37:04;23.30;99.90
40996;DHT22;26723;57.478;12.066;2022-07-29T16:40:24;23.30;99.90
40996;DHT22;26723;57.478;12.066;2022-07-29T16:43:33;23.20;99.90
40996;DHT22;26723;57.478;12.066;2022-07-29T16:46:45;23.10;99.90
40996;DHT22;26723;57.478;12.066;2022-07-29T16:50:42;23.10;99.90
40996;DHT22;26723;57.478;12.066;2022-07-29T16:54:31;23.20;99.90
40996;DHT22;26723;57.478;12.066;2022-07-29T16:58:03;23.20;99.90
40996;DHT22;26723;57.478;12.066;2022-07-29T17:01:29;23.00;99.90
40996;DHT22;26723;57.478;12.066;2022-07-29T17:04:49;23.10;99.90
40996;DHT22;26723;57.478;12.066;2022-07-29T17:07:57;23.20;99.90
40996;DHT22;26723;57.478;12.066;2022-07-29T17:11:07;23.20;99.90
40996;DHT22;26723;57.478;12.066;2022-07-29T17:14:16;23.10;99.90
40996;DHT22;26723;57.478;12.066;2022-07-29T17:17:32;23.20;99.90
40996;DHT22;26723;57.478;12.066;2022-07-29T17:21:00;23.10;99.90
40996;DHT22;26723;57.478;12.066;2022-07-29T17:24:09;23.10;99.90
40996;DHT22;26723;57.478;12.066;2022-07-29T17:27:19;23.00;99.90
40996;DHT22;26723;57.478;12.066;2022-07-29T17:30:27;22.90;99.90
40996;DHT22;26723;57.478;12.066;2022-07-29T17:33:36;22.90;99.90
40996;DHT22;26723;57.478;12.066;2022-07-29T17:36:44;22.90;99.90
40996;DHT22;26723;57.478;12.066;2022-07-29T17:39:53;22.90;99.90
40996;DHT22;26723;57.478;12.066;2022-07-29T17:43:07;22.90;99.90
40996;DHT22;26723;57.478;12.066;2022-07-29T17:46:18;22.90;99.90
40996;DHT22;26723;57.478;12.066;2022-07-29T17:49:28;22.80;99.90
40996;DHT22;26723;57.478;12.066;2022-07-29T17:52:36;22.80;99.90
40996;DHT22;26723;57.478;12.066;2022-07-29T17:55:46;22.80;99.90
40996;DHT22;26723;57.478;12.066;2022-07-29T17:58:56;22.80;99.90
40996;DHT22;26723;57.478;12.066;2022-07-29T18:02:07;22.70;99.90
40996;DHT22;26723;57.478;12.066;2022-07-29T18:05:18;22.50;99.90
40996;DHT22;26723;57.478;12.066;2022-07-29T18:08:33;22.40;99.90
40996;DHT22;26723;57.478;12.066;2022-07-29T18:11:54;22.40;99.90
40996;DHT22;26723;57.478;12.066;2022-07-29T18:15:08;22.30;99.90
40996;DHT22;26723;57.478;12.066;2022-07-29T18:18:16;22.30;99.90
40996;DHT22;26723;57.478;12.066;2022-07-29T18:21:25;22.20;99.90
40996;DHT22;26723;57.478;12.066;2022-07-29T18:24:55;22.10;99.90
40996;DHT22;26723;57.478;12.066;2022-07-29T18:28:16;22.10;99.90
40996;DHT22;26723;57.478;12.066;2022-07-29T18:31:40;21.90;99.90
40996;DHT22;26723;57.478;12.066;2022-07-29T18:34:53;21.90;99.90
40996;DHT22;26723;57.478;12.066;2022-07-29T18:38:05;21.90;99.90
40996;DHT22;26723;57.478;12.066;2022-07-29T18:41:38;21.90;99.90
40996;DHT22;26723;57.478;12.066;2022-07-29T18:44:57;21.80;99.90
40996;DHT22;26723;57.478;12.066;2022-07-29T18:48:41;21.80;99.90
40996;DHT22;26723;57.478;12.066;2022-07-29T18:52:19;21.70;99.90
40996;DHT22;26723;57.478;12.066;2022-07-29T18:55:37;21.70;99.90
40996;DHT22;26723;57.478;12.066;2022-07-29T18:58:51;21.60;99.90
40996;DHT22;26723;57.478;12.066;2022-07-29T19:02:17;21.50;99.90
40996;DHT22;26723;57.478;12.066;2022-07-29T19:05:38;21.40;99.90
40996;DHT22;26723;57.478;12.066;2022-07-29T19:08:53;21.40;99.90
40996;DHT22;26723;57.478;12.066;2022-07-29T19:12:13;21.30;99.90
40996;DHT22;26723;57.478;12.066;2022-07-29T19:15:31;21.30;99.90
40996;DHT22;26723;57.478;12.066;2022-07-29T19:18:48;21.20;99.90
40996;DHT22;26723;57.478;12.066;2022-07-29T19:22:11;21.10;99.90
40996;DHT22;26723;57.478;12.066;2022-07-29T19:25:38;21.10;99.90
40996;DHT22;26723;57.478;12.066;2022-07-29T19:29:02;21.00;99.90
40996;DHT22;26723;57.478;12.066;2022-07-29T19:32:13;20.90;99.90
40996;DHT22;26723;57.478;12.066;2022-07-29T19:35:31;20.90;99.90
40996;DHT22;26723;57.478;12.066;2022-07-29T19:38:44;20.90;99.90
40996;DHT22;26723;57.478;12.066;2022-07-29T19:41:53;20.90;99.90
40996;DHT22;26723;57.478;12.066;2022-07-29T19:45:10;20.80;99.90
40996;DHT22;26723;57.478;12.066;2022-07-29T19:48:21;20.80;99.90
40996;DHT22;26723;57.478;12.066;2022-07-29T19:51:29;20.80;99.90
40996;DHT22;26723;57.478;12.066;2022-07-29T19:54:39;20.70;99.90
40996;DHT22;26723;57.478;12.066;2022-07-29T19:57:48;20.70;99.90
40996;DHT22;26723;57.478;12.066;2022-07-29T20:00:57;20.70;99.90
40996;DHT22;26723;57.478;12.066;2022-07-29T20:04:05;20.60;99.90
40996;DHT22;26723;57.478;12.066;2022-07-29T20:07:14;20.60;99.90
40996;DHT22;26723;57.478;12.066;2022-07-29T20:10:23;20.50;99.90
40996;DHT22;26723;57.478;12.066;2022-07-29T20:13:32;20.40;99.90
40996;DHT22;26723;57.478;12.066;2022-07-29T20:16:41;20.40;99.90
40996;DHT22;26723;57.478;12.066;2022-07-29T20:19:51;20.30;99.90
40996;DHT22;26723;57.478;12.066;2022-07-29T20:23:01;20.30;99.90
40996;DHT22;26723;57.478;12.066;2022-07-29T20:26:11;20.20;99.90
40996;DHT22;26723;57.478;12.066;2022-07-29T20:29:19;20.10;99.90
40996;DHT22;26723;57.478;12.066;2022-07-29T20:32:32;20.10;99.90
40996;DHT22;26723;57.478;12.066;2022-07-29T20:35:43;20.10;99.90
40996;DHT22;26723;57.478;12.066;2022-07-29T20:38:53;20.10;99.90
40996;DHT22;26723;57.478;12.066;2022-07-29T20:42:04;20.00;99.90
40996;DHT22;26723;57.478;12.066;2022-07-29T20:45:14;19.80;99.90
40996;DHT22;26723;57.478;12.066;2022-07-29T20:48:23;19.70;99.90
40996;DHT22;26723;57.478;12.066;2022-07-29T20:51:33;19.60;99.90
40996;DHT22;26723;57.478;12.066;2022-07-29T20:54:50;19.50;99.90
40996;DHT22;26723;57.478;12.066;2022-07-29T20:58:07;19.50;99.90
40996;DHT22;26723;57.478;12.066;2022-07-29T21:01:16;19.40;99.90
40996;DHT22;26723;57.478;12.066;2022-07-29T21:04:28;19.30;99.90
40996;DHT22;26723;57.478;12.066;2022-07-29T21:08:12;19.10;99.90
40996;DHT22;26723;57.478;12.066;2022-07-29T21:11:36;19.10;99.90
40996;DHT22;26723;57.478;12.066;2022-07-29T21:19:15;19.10;99.90